sensor_id;sensor_type;location;lat;lon;timestamp;P1;durP1;ratioP1;P2;durP2;ratioP2
9418;SDS011;4748;50.802;7.132;2023-07-02T03:32:05;3.33;;;2.50;;
9418;SDS011;4748;50.802;7.132;2023-07-02T03:34:30;3.67;;;3.17;;
9418;SDS011;4748;50.802;7.132;2023-07-02T03:36:55;8.23;;;3.17;;
9418;SDS011;4748;50.802;7.132;2023-07-02T03:39:21;9.60;;;3.23;;
9418;SDS011;4748;50.802;7.132;2023-07-02T03:41:46;4.13;;;2.83;;
9418;SDS011;4748;50.802;7.132;2023-07-02T03:44:12;18.07;;;3.50;;
9418;SDS011;4748;50.802;7.132;2023-07-02T03:46:39;13.93;;;3.33;;
9418;SDS011;4748;50.802;7.132;2023-07-02T03:49:05;5.00;;;2.77;;
9418;SDS011;4748;50.802;7.132;2023-07-02T03:51:30;7.53;;;3.23;;
9418;SDS011;4748;50.802;7.132;2023-07-02T03:53:57;7.53;;;3.37;;
9418;SDS011;4748;50.802;7.132;2023-07-02T03:56:23;5.47;;;3.50;;
9418;SDS011;4748;50.802;7.132;2023-07-02T03:58:48;2.83;;;2.60;;
9418;SDS011;4748;50.802;7.132;2023-07-02T04:01:14;8.13;;;3.67;;
9418;SDS011;4748;50.802;7.132;2023-07-02T04:03:42;6.27;;;2.90;;
9418;SDS011;4748;50.802;7.132;2023-07-02T04:06:12;5.27;;;4.30;;
9418;SDS011;4748;50.802;7.132;2023-07-02T04:08:37;5.77;;;2.80;;
9418;SDS011;4748;50.802;7.132;2023-07-02T04:11:03;7.00;;;3.50;;
9418;SDS011;4748;50.802;7.132;2023-07-02T04:13:28;8.43;;;3.20;;
9418;SDS011;4748;50.802;7.132;2023-07-02T04:15:53;6.00;;;3.23;;
9418;SDS011;4748;50.802;7.132;2023-07-02T04:18:19;13.03;;;3.67;;
9418;SDS011;4748;50.802;7.132;2023-07-02T04:20:44;9.57;;;2.83;;
9418;SDS011;4748;50.802;7.132;2023-07-02T04:23:09;7.70;;;3.27;;
9418;SDS011;4748;50.802;7.132;2023-07-02T04:25:35;7.07;;;3.40;;
9418;SDS011;4748;50.802;7.132;2023-07-02T04:28:00;9.93;;;3.30;;
9418;SDS011;4748;50.802;7.132;2023-07-02T04:30:25;5.30;;;3.43;;
9418;SDS011;4748;50.802;7.132;2023-07-02T04:32:51;5.83;;;3.17;;
9418;SDS011;4748;50.802;7.132;2023-07-02T04:35:17;10.20;;;3.93;;
9418;SDS011;4748;50.802;7.132;2023-07-02T04:37:43;10.30;;;4.40;;
9418;SDS011;4748;50.802;7.132;2023-07-02T04:40:08;7.30;;;4.13;;
9418;SDS011;4748;50.802;7.132;2023-07-02T04:42:37;14.20;;;5.30;;
9418;SDS011;4748;50.802;7.132;2023-07-02T04:45:06;15.80;;;5.27;;
9418;SDS011;4748;50.802;7.132;2023-07-02T04:47:33;9.53;;;5.03;;
9418;SDS011;4748;50.802;7.132;2023-07-02T04:49:59;19.43;;;5.73;;
9418;SDS011;4748;50.802;7.132;2023-07-02T04:52:24;15.63;;;5.47;;
9418;SDS011;4748;50.802;7.132;2023-07-02T04:54:50;9.00;;;5.67;;
9418;SDS011;4748;50.802;7.132;2023-07-02T04:57:15;10.33;;;5.53;;
9418;SDS011;4748;50.802;7.132;2023-07-02T04:59:41;10.80;;;5.10;;
9418;SDS011;4748;50.802;7.132;2023-07-02T05:02:06;11.27;;;5.33;;
9418;SDS011;4748;50.802;7.132;2023-07-02T05:04:32;8.17;;;4.67;;
9418;SDS011;4748;50.802;7.132;2023-07-02T05:06:57;15.70;;;6.27;;
9418;SDS011;4748;50.802;7.132;2023-07-02T05:09:24;20.27;;;6.07;;
9418;SDS011;4748;50.802;7.132;2023-07-02T05:11:50;14.33;;;6.03;;
9418;SDS011;4748;50.802;7.132;2023-07-02T05:14:15;15.67;;;6.03;;
9418;SDS011;4748;50.802;7.132;2023-07-02T05:16:40;17.43;;;5.63;;
9418;SDS011;4748;50.802;7.132;2023-07-02T05:19:06;10.87;;;6.30;;
9418;SDS011;4748;50.802;7.132;2023-07-02T05:21:31;13.40;;;5.93;;
9418;SDS011;4748;50.802;7.132;2023-07-02T05:23:56;18.43;;;6.23;;
9418;SDS011;4748;50.802;7.132;2023-07-02T05:26:21;19.13;;;6.50;;
9418;SDS011;4748;50.802;7.132;2023-07-02T05:28:47;17.40;;;7.20;;
9418;SDS011;4748;50.802;7.132;2023-07-02T05:31:13;20.70;;;6.33;;
9418;SDS011;4748;50.802;7.132;2023-07-02T05:33:38;15.87;;;7.10;;
9418;SDS011;4748;50.802;7.132;2023-07-02T05:36:04;17.20;;;7.73;;
9418;SDS011;4748;50.802;7.132;2023-07-02T05:38:29;15.67;;;7.33;;
9418;SDS011;4748;50.802;7.132;2023-07-02T05:40:54;16.73;;;6.97;;
9418;SDS011;4748;50.802;7.132;2023-07-02T05:43:20;17.93;;;7.70;;
9418;SDS011;4748;50.802;7.132;2023-07-02T05:45:45;13.23;;;7.73;;
9418;SDS011;4748;50.802;7.132;2023-07-02T05:48:10;12.13;;;6.53;;
9418;SDS011;4748;50.802;7.132;2023-07-02T05:50:36;19.40;;;7.53;;
9418;SDS011;4748;50.802;7.132;2023-07-02T05:53:01;22.47;;;8.17;;
9418;SDS011;4748;50.802;7.132;2023-07-02T05:55:26;20.93;;;8.27;;
9418;SDS011;4748;50.802;7.132;2023-07-02T05:57:51;21.90;;;7.77;;
9418;SDS011;4748;50.802;7.132;2023-07-02T06:00:17;21.53;;;8.53;;
9418;SDS011;4748;50.802;7.132;2023-07-02T06:02:42;20.33;;;8.07;;
9418;SDS011;4748;50.802;7.132;2023-07-02T06:05:11;21.73;;;7.27;;
9418;SDS011;4748;50.802;7.132;2023-07-02T06:07:37;27.17;;;8.27;;
9418;SDS011;4748;50.802;7.132;2023-07-02T06:10:02;26.40;;;8.53;;
9418;SDS011;4748;50.802;7.132;2023-07-02T06:12:27;24.13;;;8.57;;
9418;SDS011;4748;50.802;7.132;2023-07-02T06:14:53;38.33;;;8.47;;
9418;SDS011;4748;50.802;7.132;2023-07-02T06:17:18;30.87;;;7.50;;
9418;SDS011;4748;50.802;7.132;2023-07-02T06:19:45;23.37;;;8.67;;
9418;SDS011;4748;50.802;7.132;2023-07-02T06:22:11;25.50;;;8.37;;
9418;SDS011;4748;50.802;7.132;2023-07-02T06:24:37;20.37;;;7.93;;
9418;SDS011;4748;50.802;7.132;2023-07-02T06:27:02;24.57;;;8.17;;
9418;SDS011;4748;50.802;7.132;2023-07-02T06:29:28;21.93;;;8.17;;
9418;SDS011;4748;50.802;7.132;2023-07-02T06:31:54;19.70;;;8.07;;
9418;SDS011;4748;50.802;7.132;2023-07-02T06:34:19;15.57;;;7.45;;
9418;SDS011;4748;50.802;7.132;2023-07-02T06:36:44;19.90;;;7.97;;
9418;SDS011;4748;50.802;7.132;2023-07-02T06:39:10;23.23;;;9.30;;
9418;SDS011;4748;50.802;7.132;2023-07-02T06:41:35;19.13;;;7.90;;
9418;SDS011;4748;50.802;7.132;2023-07-02T06:44:01;25.80;;;8.80;;
9418;SDS011;4748;50.802;7.132;2023-07-02T06:46:27;21.90;;;7.90;;
9418;SDS011;4748;50.802;7.132;2023-07-02T06:48:52;17.43;;;8.00;;
9418;SDS011;4748;50.802;7.132;2023-07-02T06:51:17;26.07;;;8.30;;
9418;SDS011;4748;50.802;7.132;2023-07-02T06:53:44;25.03;;;8.10;;
9418;SDS011;4748;50.802;7.132;2023-07-02T06:56:10;22.33;;;7.90;;
9418;SDS011;4748;50.802;7.132;2023-07-02T06:58:36;25.87;;;7.53;;
9418;SDS011;4748;50.802;7.132;2023-07-02T07:01:01;22.93;;;8.27;;
9418;SDS011;4748;50.802;7.132;2023-07-02T07:03:27;19.70;;;7.78;;
9418;SDS011;4748;50.802;7.132;2023-07-02T07:05:53;19.73;;;7.10;;
9418;SDS011;4748;50.802;7.132;2023-07-02T07:08:18;21.08;;;7.30;;
9418;SDS011;4748;50.802;7.132;2023-07-02T07:10:43;19.88;;;6.78;;
9418;SDS011;4748;50.802;7.132;2023-07-02T07:13:10;15.50;;;6.15;;
9418;SDS011;4748;50.802;7.132;2023-07-02T07:15:36;11.82;;;6.68;;
9418;SDS011;4748;50.802;7.132;2023-07-02T07:18:01;15.90;;;6.95;;
9418;SDS011;4748;50.802;7.132;2023-07-02T07:20:27;12.43;;;5.93;;
9418;SDS011;4748;50.802;7.132;2023-07-02T07:22:52;13.52;;;6.63;;
9418;SDS011;4748;50.802;7.132;2023-07-02T07:25:17;12.73;;;6.35;;
9418;SDS011;4748;50.802;7.132;2023-07-02T07:27:43;13.00;;;6.90;;
9418;SDS011;4748;50.802;7.132;2023-07-02T07:30:08;19.50;;;7.50;;
9418;SDS011;4748;50.802;7.132;2023-07-02T07:32:34;17.73;;;7.47;;
9418;SDS011;4748;50.802;7.132;2023-07-02T07:34:59;19.23;;;7.25;;
9418;SDS011;4748;50.802;7.132;2023-07-02T07:37:24;21.77;;;7.63;;
9418;SDS011;4748;50.802;7.132;2023-07-02T07:39:52;13.98;;;6.55;;
9418;SDS011;4748;50.802;7.132;2023-07-02T07:42:18;13.02;;;5.55;;
9418;SDS011;4748;50.802;7.132;2023-07-02T07:44:46;16.30;;;7.38;;
9418;SDS011;4748;50.802;7.132;2023-07-02T07:47:12;10.00;;;4.93;;
9418;SDS011;4748;50.802;7.132;2023-07-02T07:49:37;10.18;;;5.47;;
9418;SDS011;4748;50.802;7.132;2023-07-02T07:52:03;9.38;;;4.57;;
9418;SDS011;4748;50.802;7.132;2023-07-02T07:54:31;19.30;;;6.22;;
9418;SDS011;4748;50.802;7.132;2023-07-02T07:56:57;18.55;;;5.88;;
9418;SDS011;4748;50.802;7.132;2023-07-02T07:59:22;18.83;;;5.55;;
9418;SDS011;4748;50.802;7.132;2023-07-02T08:01:47;11.55;;;5.38;;
9418;SDS011;4748;50.802;7.132;2023-07-02T08:04:13;19.75;;;7.20;;
9418;SDS011;4748;50.802;7.132;2023-07-02T08:06:38;18.35;;;6.25;;
9418;SDS011;4748;50.802;7.132;2023-07-02T08:09:04;16.25;;;6.82;;
9418;SDS011;4748;50.802;7.132;2023-07-02T08:11:29;12.88;;;6.28;;
9418;SDS011;4748;50.802;7.132;2023-07-02T08:13:54;11.98;;;6.28;;
9418;SDS011;4748;50.802;7.132;2023-07-02T08:16:20;10.07;;;6.13;;
9418;SDS011;4748;50.802;7.132;2023-07-02T08:18:45;12.63;;;6.07;;
9418;SDS011;4748;50.802;7.132;2023-07-02T08:21:11;7.07;;;5.60;;
9418;SDS011;4748;50.802;7.132;2023-07-02T08:23:36;10.43;;;6.35;;
9418;SDS011;4748;50.802;7.132;2023-07-02T08:26:02;11.95;;;6.25;;
9418;SDS011;4748;50.802;7.132;2023-07-02T08:28:28;10.63;;;5.50;;
9418;SDS011;4748;50.802;7.132;2023-07-02T08:30:53;10.70;;;5.95;;
9418;SDS011;4748;50.802;7.132;2023-07-02T08:33:19;7.10;;;4.22;;
9418;SDS011;4748;50.802;7.132;2023-07-02T08:35:45;8.90;;;4.93;;
9418;SDS011;4748;50.802;7.132;2023-07-02T08:38:10;12.73;;;5.55;;
9418;SDS011;4748;50.802;7.132;2023-07-02T08:40:36;9.65;;;5.20;;
9418;SDS011;4748;50.802;7.132;2023-07-02T08:43:01;12.52;;;5.50;;
9418;SDS011;4748;50.802;7.132;2023-07-02T08:45:27;10.55;;;5.63;;
9418;SDS011;4748;50.802;7.132;2023-07-02T08:47:52;14.32;;;5.15;;
9418;SDS011;4748;50.802;7.132;2023-07-02T08:50:22;11.55;;;5.43;;
9418;SDS011;4748;50.802;7.132;2023-07-02T08:52:48;12.13;;;5.55;;
9418;SDS011;4748;50.802;7.132;2023-07-02T08:55:13;12.30;;;5.70;;
9418;SDS011;4748;50.802;7.132;2023-07-02T08:57:39;20.42;;;5.13;;
9418;SDS011;4748;50.802;7.132;2023-07-02T09:00:14;9.88;;;6.03;;
9418;SDS011;4748;50.802;7.132;2023-07-02T09:02:40;11.85;;;5.45;;
9418;SDS011;4748;50.802;7.132;2023-07-02T09:05:05;11.27;;;4.35;;
9418;SDS011;4748;50.802;7.132;2023-07-02T09:07:31;11.20;;;4.28;;
9418;SDS011;4748;50.802;7.132;2023-07-02T09:09:56;9.65;;;4.45;;
9418;SDS011;4748;50.802;7.132;2023-07-02T09:12:25;13.82;;;5.30;;
9418;SDS011;4748;50.802;7.132;2023-07-02T09:14:54;15.27;;;5.65;;
9418;SDS011;4748;50.802;7.132;2023-07-02T09:17:30;13.85;;;5.57;;
9418;SDS011;4748;50.802;7.132;2023-07-02T09:19:57;21.83;;;5.88;;
9418;SDS011;4748;50.802;7.132;2023-07-02T09:22:25;14.10;;;6.45;;
9418;SDS011;4748;50.802;7.132;2023-07-02T09:24:54;13.80;;;4.47;;
9418;SDS011;4748;50.802;7.132;2023-07-02T09:27:32;12.82;;;5.30;;
9418;SDS011;4748;50.802;7.132;2023-07-02T09:32:34;15.38;;;5.68;;
9418;SDS011;4748;50.802;7.132;2023-07-02T09:35:00;10.90;;;5.13;;
9418;SDS011;4748;50.802;7.132;2023-07-02T09:37:25;11.70;;;4.78;;
9418;SDS011;4748;50.802;7.132;2023-07-02T09:39:51;9.90;;;5.03;;
9418;SDS011;4748;50.802;7.132;2023-07-02T09:42:20;9.48;;;5.70;;
9418;SDS011;4748;50.802;7.132;2023-07-02T09:44:47;9.13;;;5.47;;
9418;SDS011;4748;50.802;7.132;2023-07-02T09:47:18;10.15;;;5.70;;
9418;SDS011;4748;50.802;7.132;2023-07-02T09:50:00;12.77;;;5.57;;
9418;SDS011;4748;50.802;7.132;2023-07-02T09:52:28;13.45;;;5.55;;
9418;SDS011;4748;50.802;7.132;2023-07-02T09:54:54;17.85;;;6.28;;
9418;SDS011;4748;50.802;7.132;2023-07-02T09:57:19;25.13;;;6.68;;
9418;SDS011;4748;50.802;7.132;2023-07-02T09:59:45;11.15;;;5.65;;
9418;SDS011;4748;50.802;7.132;2023-07-02T10:02:10;9.63;;;5.63;;
9418;SDS011;4748;50.802;7.132;2023-07-02T10:04:44;11.43;;;5.15;;
9418;SDS011;4748;50.802;7.132;2023-07-02T10:07:13;8.85;;;6.50;;
9418;SDS011;4748;50.802;7.132;2023-07-02T10:09:51;13.15;;;5.43;;
9418;SDS011;4748;50.802;7.132;2023-07-02T10:12:20;13.68;;;6.70;;
9418;SDS011;4748;50.802;7.132;2023-07-02T10:14:47;13.85;;;5.40;;
9418;SDS011;4748;50.802;7.132;2023-07-02T10:17:27;13.88;;;5.22;;
9418;SDS011;4748;50.802;7.132;2023-07-02T10:19:56;15.55;;;6.90;;
9418;SDS011;4748;50.802;7.132;2023-07-02T10:22:26;11.00;;;5.28;;
9418;SDS011;4748;50.802;7.132;2023-07-02T10:27:18;13.00;;;5.35;;
9418;SDS011;4748;50.802;7.132;2023-07-02T10:29:50;10.07;;;5.65;;
9418;SDS011;4748;50.802;7.132;2023-07-02T10:32:25;8.27;;;4.97;;
9418;SDS011;4748;50.802;7.132;2023-07-02T10:34:52;13.82;;;5.85;;
9418;SDS011;4748;50.802;7.132;2023-07-02T10:37:18;10.45;;;5.38;;
9418;SDS011;4748;50.802;7.132;2023-07-02T10:39:43;9.77;;;4.82;;
9418;SDS011;4748;50.802;7.132;2023-07-02T10:42:09;13.55;;;5.45;;
9418;SDS011;4748;50.802;7.132;2023-07-02T10:44:46;11.45;;;5.43;;
9418;SDS011;4748;50.802;7.132;2023-07-02T10:47:13;9.10;;;4.88;;
9418;SDS011;4748;50.802;7.132;2023-07-02T10:49:41;18.00;;;5.28;;
9418;SDS011;4748;50.802;7.132;2023-07-02T10:52:06;10.27;;;4.63;;
9418;SDS011;4748;50.802;7.132;2023-07-02T10:54:41;14.48;;;5.20;;
9418;SDS011;4748;50.802;7.132;2023-07-02T10:57:08;11.82;;;4.97;;
9418;SDS011;4748;50.802;7.132;2023-07-02T10:59:34;10.25;;;5.63;;
9418;SDS011;4748;50.802;7.132;2023-07-02T11:02:00;21.83;;;5.85;;
9418;SDS011;4748;50.802;7.132;2023-07-02T11:04:28;10.18;;;4.78;;
9418;SDS011;4748;50.802;7.132;2023-07-02T11:06:54;11.07;;;4.93;;
9418;SDS011;4748;50.802;7.132;2023-07-02T11:09:20;11.15;;;5.00;;
9418;SDS011;4748;50.802;7.132;2023-07-02T11:11:55;5.05;;;3.88;;
9418;SDS011;4748;50.802;7.132;2023-07-02T11:14:32;5.82;;;3.60;;
9418;SDS011;4748;50.802;7.132;2023-07-02T11:17:00;18.05;;;5.57;;
9418;SDS011;4748;50.802;7.132;2023-07-02T11:19:28;14.43;;;4.65;;
9418;SDS011;4748;50.802;7.132;2023-07-02T11:21:55;12.20;;;4.53;;
9418;SDS011;4748;50.802;7.132;2023-07-02T11:24:29;10.25;;;5.32;;
9418;SDS011;4748;50.802;7.132;2023-07-02T11:26:59;12.07;;;5.78;;
9418;SDS011;4748;50.802;7.132;2023-07-02T11:29:27;9.73;;;4.45;;
9418;SDS011;4748;50.802;7.132;2023-07-02T11:31:53;10.18;;;4.20;;
9418;SDS011;4748;50.802;7.132;2023-07-02T11:34:20;10.05;;;5.30;;
9418;SDS011;4748;50.802;7.132;2023-07-02T11:36:47;14.65;;;5.03;;
9418;SDS011;4748;50.802;7.132;2023-07-02T11:39:13;10.38;;;5.38;;
9418;SDS011;4748;50.802;7.132;2023-07-02T11:41:43;7.80;;;4.40;;
9418;SDS011;4748;50.802;7.132;2023-07-02T11:44:10;8.27;;;4.13;;
9418;SDS011;4748;50.802;7.132;2023-07-02T11:46:37;10.35;;;5.32;;
9418;SDS011;4748;50.802;7.132;2023-07-02T11:49:03;14.60;;;5.50;;
9418;SDS011;4748;50.802;7.132;2023-07-02T11:51:38;11.50;;;5.05;;
9418;SDS011;4748;50.802;7.132;2023-07-02T11:54:05;12.75;;;5.18;;
9418;SDS011;4748;50.802;7.132;2023-07-02T11:56:31;14.57;;;5.03;;
9418;SDS011;4748;50.802;7.132;2023-07-02T11:58:56;15.50;;;5.35;;
9418;SDS011;4748;50.802;7.132;2023-07-02T12:01:22;15.52;;;5.32;;
9418;SDS011;4748;50.802;7.132;2023-07-02T12:03:47;15.80;;;6.07;;
9418;SDS011;4748;50.802;7.132;2023-07-02T12:06:13;12.13;;;5.13;;
9418;SDS011;4748;50.802;7.132;2023-07-02T12:08:38;9.15;;;4.45;;
9418;SDS011;4748;50.802;7.132;2023-07-02T12:11:03;8.60;;;5.13;;
9418;SDS011;4748;50.802;7.132;2023-07-02T12:13:29;11.57;;;5.22;;
9418;SDS011;4748;50.802;7.132;2023-07-02T12:15:54;6.85;;;4.80;;
9418;SDS011;4748;50.802;7.132;2023-07-02T12:18:20;9.48;;;4.18;;
9418;SDS011;4748;50.802;7.132;2023-07-02T12:20:45;6.03;;;4.05;;
9418;SDS011;4748;50.802;7.132;2023-07-02T12:23:10;13.68;;;4.72;;
9418;SDS011;4748;50.802;7.132;2023-07-02T12:25:36;11.63;;;4.45;;
9418;SDS011;4748;50.802;7.132;2023-07-02T12:28:03;5.68;;;3.75;;
9418;SDS011;4748;50.802;7.132;2023-07-02T12:30:29;9.48;;;4.55;;
9418;SDS011;4748;50.802;7.132;2023-07-02T12:32:55;10.75;;;3.85;;
9418;SDS011;4748;50.802;7.132;2023-07-02T12:35:20;9.98;;;4.72;;
9418;SDS011;4748;50.802;7.132;2023-07-02T12:37:47;4.43;;;2.88;;
9418;SDS011;4748;50.802;7.132;2023-07-02T12:40:13;17.30;;;4.88;;
9418;SDS011;4748;50.802;7.132;2023-07-02T12:42:42;21.27;;;5.47;;
9418;SDS011;4748;50.802;7.132;2023-07-02T12:45:09;16.15;;;5.13;;
9418;SDS011;4748;50.802;7.132;2023-07-02T12:47:36;12.63;;;5.43;;
9418;SDS011;4748;50.802;7.132;2023-07-02T12:50:02;8.07;;;4.15;;
9418;SDS011;4748;50.802;7.132;2023-07-02T12:52:28;8.65;;;5.18;;
9418;SDS011;4748;50.802;7.132;2023-07-02T12:54:54;10.70;;;3.80;;
9418;SDS011;4748;50.802;7.132;2023-07-02T12:57:19;12.18;;;4.55;;
9418;SDS011;4748;50.802;7.132;2023-07-02T12:59:45;14.30;;;4.10;;
9418;SDS011;4748;50.802;7.132;2023-07-02T13:02:10;8.77;;;3.75;;
9418;SDS011;4748;50.802;7.132;2023-07-02T13:04:36;8.85;;;3.92;;
9418;SDS011;4748;50.802;7.132;2023-07-02T13:07:01;13.95;;;4.88;;
9418;SDS011;4748;50.802;7.132;2023-07-02T13:09:27;11.77;;;3.92;;
9418;SDS011;4748;50.802;7.132;2023-07-02T13:11:52;10.70;;;4.40;;
9418;SDS011;4748;50.802;7.132;2023-07-02T13:14:18;12.88;;;4.80;;
9418;SDS011;4748;50.802;7.132;2023-07-02T13:16:43;8.73;;;3.78;;
9418;SDS011;4748;50.802;7.132;2023-07-02T13:19:08;9.52;;;3.75;;
9418;SDS011;4748;50.802;7.132;2023-07-02T13:21:34;13.32;;;2.70;;
9418;SDS011;4748;50.802;7.132;2023-07-02T13:23:59;8.15;;;4.65;;
9418;SDS011;4748;50.802;7.132;2023-07-02T13:26:24;8.48;;;4.72;;
9418;SDS011;4748;50.802;7.132;2023-07-02T13:28:50;9.48;;;4.55;;
9418;SDS011;4748;50.802;7.132;2023-07-02T13:31:15;8.95;;;4.63;;
9418;SDS011;4748;50.802;7.132;2023-07-02T13:33:41;6.63;;;3.75;;
9418;SDS011;4748;50.802;7.132;2023-07-02T13:36:07;16.02;;;4.45;;
9418;SDS011;4748;50.802;7.132;2023-07-02T13:38:33;10.23;;;4.68;;
9418;SDS011;4748;50.802;7.132;2023-07-02T13:40:58;8.63;;;5.07;;
9418;SDS011;4748;50.802;7.132;2023-07-02T13:43:24;10.70;;;4.72;;
9418;SDS011;4748;50.802;7.132;2023-07-02T13:45:49;10.70;;;4.18;;
9418;SDS011;4748;50.802;7.132;2023-07-02T13:48:15;9.52;;;4.43;;
9418;SDS011;4748;50.802;7.132;2023-07-02T13:50:40;6.72;;;3.45;;
9418;SDS011;4748;50.802;7.132;2023-07-02T13:53:06;5.70;;;2.67;;
9418;SDS011;4748;50.802;7.132;2023-07-02T13:55:33;8.45;;;3.58;;
9418;SDS011;4748;50.802;7.132;2023-07-02T13:57:58;7.80;;;4.00;;
9418;SDS011;4748;50.802;7.132;2023-07-02T14:00:24;12.95;;;5.00;;
9418;SDS011;4748;50.802;7.132;2023-07-02T14:02:50;9.48;;;4.30;;
9418;SDS011;4748;50.802;7.132;2023-07-02T14:05:15;6.47;;;4.45;;
9418;SDS011;4748;50.802;7.132;2023-07-02T14:07:41;10.65;;;4.65;;
9418;SDS011;4748;50.802;7.132;2023-07-02T14:10:06;9.13;;;4.85;;
9418;SDS011;4748;50.802;7.132;2023-07-02T14:12:32;9.45;;;4.30;;
9418;SDS011;4748;50.802;7.132;2023-07-02T14:14:57;10.85;;;5.32;;
9418;SDS011;4748;50.802;7.132;2023-07-02T14:17:23;7.57;;;4.00;;
9418;SDS011;4748;50.802;7.132;2023-07-02T14:19:48;11.75;;;4.40;;
9418;SDS011;4748;50.802;7.132;2023-07-02T14:22:14;15.18;;;4.55;;
9418;SDS011;4748;50.802;7.132;2023-07-02T14:24:39;6.60;;;4.22;;
9418;SDS011;4748;50.802;7.132;2023-07-02T14:27:05;7.88;;;4.22;;
9418;SDS011;4748;50.802;7.132;2023-07-02T14:29:31;6.35;;;3.45;;
9418;SDS011;4748;50.802;7.132;2023-07-02T14:31:56;7.35;;;3.80;;
9418;SDS011;4748;50.802;7.132;2023-07-02T14:34:21;11.68;;;5.28;;
9418;SDS011;4748;50.802;7.132;2023-07-02T14:36:47;9.10;;;4.10;;
9418;SDS011;4748;50.802;7.132;2023-07-02T14:39:12;14.13;;;4.68;;
9418;SDS011;4748;50.802;7.132;2023-07-02T14:41:38;11.50;;;5.15;;
9418;SDS011;4748;50.802;7.132;2023-07-02T14:44:04;9.98;;;4.32;;
9418;SDS011;4748;50.802;7.132;2023-07-02T14:46:30;6.45;;;4.30;;
9418;SDS011;4748;50.802;7.132;2023-07-02T14:48:56;7.75;;;3.50;;
9418;SDS011;4748;50.802;7.132;2023-07-02T14:51:21;8.57;;;4.32;;
9418;SDS011;4748;50.802;7.132;2023-07-02T14:53:47;8.27;;;3.83;;
9418;SDS011;4748;50.802;7.132;2023-07-02T14:56:12;9.45;;;4.75;;
9418;SDS011;4748;50.802;7.132;2023-07-02T14:58:38;8.65;;;4.57;;
9418;SDS011;4748;50.802;7.132;2023-07-02T15:01:03;10.18;;;4.70;;
9418;SDS011;4748;50.802;7.132;2023-07-02T15:03:28;11.88;;;4.65;;
9418;SDS011;4748;50.802;7.132;2023-07-02T15:06:04;9.02;;;4.28;;
9418;SDS011;4748;50.802;7.132;2023-07-02T15:08:31;10.43;;;5.07;;
9418;SDS011;4748;50.802;7.132;2023-07-02T15:10:56;8.02;;;4.07;;
9418;SDS011;4748;50.802;7.132;2023-07-02T15:13:22;7.43;;;3.58;;
9418;SDS011;4748;50.802;7.132;2023-07-02T15:15:48;13.48;;;4.18;;
9418;SDS011;4748;50.802;7.132;2023-07-02T15:18:14;7.93;;;4.25;;
9418;SDS011;4748;50.802;7.132;2023-07-02T15:20:39;12.05;;;4.85;;
9418;SDS011;4748;50.802;7.132;2023-07-02T15:23:05;9.18;;;4.07;;
9418;SDS011;4748;50.802;7.132;2023-07-02T15:25:31;5.85;;;3.10;;
9418;SDS011;4748;50.802;7.132;2023-07-02T15:27:56;5.65;;;3.42;;
9418;SDS011;4748;50.802;7.132;2023-07-02T15:30:22;5.68;;;4.13;;
9418;SDS011;4748;50.802;7.132;2023-07-02T15:32:47;7.70;;;4.45;;
9418;SDS011;4748;50.802;7.132;2023-07-02T15:35:13;6.18;;;3.95;;
9418;SDS011;4748;50.802;7.132;2023-07-02T15:37:38;14.18;;;4.15;;
9418;SDS011;4748;50.802;7.132;2023-07-02T15:40:04;10.95;;;4.28;;
9418;SDS011;4748;50.802;7.132;2023-07-02T15:42:30;11.13;;;4.53;;
9418;SDS011;4748;50.802;7.132;2023-07-02T15:44:57;4.43;;;2.88;;
9418;SDS011;4748;50.802;7.132;2023-07-02T15:47:23;14.20;;;5.03;;
9418;SDS011;4748;50.802;7.132;2023-07-02T15:49:49;9.63;;;4.25;;
9418;SDS011;4748;50.802;7.132;2023-07-02T15:52:14;12.25;;;5.13;;
9418;SDS011;4748;50.802;7.132;2023-07-02T15:54:40;11.57;;;4.53;;
9418;SDS011;4748;50.802;7.132;2023-07-02T15:57:06;9.73;;;4.05;;
9418;SDS011;4748;50.802;7.132;2023-07-02T15:59:31;8.52;;;4.75;;
9418;SDS011;4748;50.802;7.132;2023-07-02T16:01:57;6.10;;;3.33;;
9418;SDS011;4748;50.802;7.132;2023-07-02T16:04:23;8.38;;;4.30;;
9418;SDS011;4748;50.802;7.132;2023-07-02T16:06:48;11.32;;;4.28;;
9418;SDS011;4748;50.802;7.132;2023-07-02T16:09:13;11.73;;;4.78;;
9418;SDS011;4748;50.802;7.132;2023-07-02T16:11:39;12.07;;;4.47;;
9418;SDS011;4748;50.802;7.132;2023-07-02T16:14:08;10.57;;;4.20;;
9418;SDS011;4748;50.802;7.132;2023-07-02T16:16:36;14.05;;;5.10;;
9418;SDS011;4748;50.802;7.132;2023-07-02T16:19:05;7.22;;;4.00;;
9418;SDS011;4748;50.802;7.132;2023-07-02T16:21:32;12.48;;;4.80;;
9418;SDS011;4748;50.802;7.132;2023-07-02T16:23:59;7.22;;;3.42;;
9418;SDS011;4748;50.802;7.132;2023-07-02T16:26:25;16.63;;;5.47;;
9418;SDS011;4748;50.802;7.132;2023-07-02T16:28:50;9.18;;;4.75;;
9418;SDS011;4748;50.802;7.132;2023-07-02T16:31:16;9.15;;;4.28;;
9418;SDS011;4748;50.802;7.132;2023-07-02T16:33:41;7.05;;;4.85;;
9418;SDS011;4748;50.802;7.132;2023-07-02T16:36:08;10.13;;;4.38;;
9418;SDS011;4748;50.802;7.132;2023-07-02T16:38:35;10.82;;;4.30;;
9418;SDS011;4748;50.802;7.132;2023-07-02T16:41:02;8.65;;;4.22;;
9418;SDS011;4748;50.802;7.132;2023-07-02T16:43:30;11.07;;;4.43;;
9418;SDS011;4748;50.802;7.132;2023-07-02T16:45:56;6.63;;;4.15;;
9418;SDS011;4748;50.802;7.132;2023-07-02T16:48:24;10.70;;;4.63;;
9418;SDS011;4748;50.802;7.132;2023-07-02T16:50:57;10.70;;;4.65;;
9418;SDS011;4748;50.802;7.132;2023-07-02T16:53:30;9.75;;;4.40;;
9418;SDS011;4748;50.802;7.132;2023-07-02T16:55:59;8.68;;;4.00;;
9418;SDS011;4748;50.802;7.132;2023-07-02T16:58:27;9.00;;;4.72;;
9418;SDS011;4748;50.802;7.132;2023-07-02T17:01:04;14.65;;;5.80;;
9418;SDS011;4748;50.802;7.132;2023-07-02T17:03:31;8.75;;;3.90;;
9418;SDS011;4748;50.802;7.132;2023-07-02T17:06:00;10.15;;;4.55;;
9418;SDS011;4748;50.802;7.132;2023-07-02T17:08:34;9.52;;;4.72;;
9418;SDS011;4748;50.802;7.132;2023-07-02T17:11:01;10.07;;;4.45;;
9418;SDS011;4748;50.802;7.132;2023-07-02T17:13:27;8.57;;;4.30;;
9418;SDS011;4748;50.802;7.132;2023-07-02T17:15:52;13.30;;;5.20;;
9418;SDS011;4748;50.802;7.132;2023-07-02T17:18:17;8.02;;;4.70;;
9418;SDS011;4748;50.802;7.132;2023-07-02T17:20:43;13.50;;;4.85;;
9418;SDS011;4748;50.802;7.132;2023-07-02T17:23:08;9.75;;;4.53;;
9418;SDS011;4748;50.802;7.132;2023-07-02T17:25:33;10.23;;;4.57;;
9418;SDS011;4748;50.802;7.132;2023-07-02T17:27:59;10.05;;;4.63;;
9418;SDS011;4748;50.802;7.132;2023-07-02T17:30:24;9.82;;;4.43;;
9418;SDS011;4748;50.802;7.132;2023-07-02T17:32:49;16.52;;;5.15;;
9418;SDS011;4748;50.802;7.132;2023-07-02T17:35:15;5.57;;;4.32;;
9418;SDS011;4748;50.802;7.132;2023-07-02T17:37:40;8.77;;;3.92;;
9418;SDS011;4748;50.802;7.132;2023-07-02T17:40:08;6.35;;;3.80;;
9418;SDS011;4748;50.802;7.132;2023-07-02T17:42:33;8.85;;;4.43;;
9418;SDS011;4748;50.802;7.132;2023-07-02T17:44:59;9.77;;;4.03;;
9418;SDS011;4748;50.802;7.132;2023-07-02T17:47:25;11.75;;;4.28;;
9418;SDS011;4748;50.802;7.132;2023-07-02T17:49:51;10.25;;;3.90;;
9418;SDS011;4748;50.802;7.132;2023-07-02T17:52:18;11.25;;;4.22;;
9418;SDS011;4748;50.802;7.132;2023-07-02T17:54:47;11.57;;;5.22;;
9418;SDS011;4748;50.802;7.132;2023-07-02T17:57:15;25.42;;;4.47;;
9418;SDS011;4748;50.802;7.132;2023-07-02T17:59:42;11.38;;;3.55;;
9418;SDS011;4748;50.802;7.132;2023-07-02T18:02:09;10.65;;;3.92;;
9418;SDS011;4748;50.802;7.132;2023-07-02T18:04:35;13.07;;;5.15;;
9418;SDS011;4748;50.802;7.132;2023-07-02T18:07:08;11.98;;;5.18;;
9418;SDS011;4748;50.802;7.132;2023-07-02T18:09:37;17.70;;;4.72;;
9418;SDS011;4748;50.802;7.132;2023-07-02T18:12:05;8.88;;;4.30;;
9418;SDS011;4748;50.802;7.132;2023-07-02T18:14:30;10.45;;;4.22;;
9418;SDS011;4748;50.802;7.132;2023-07-02T18:16:56;7.32;;;3.90;;
9418;SDS011;4748;50.802;7.132;2023-07-02T18:19:22;9.48;;;4.13;;
9418;SDS011;4748;50.802;7.132;2023-07-02T18:21:54;12.90;;;4.57;;
9418;SDS011;4748;50.802;7.132;2023-07-02T18:24:25;12.82;;;4.82;;
9418;SDS011;4748;50.802;7.132;2023-07-02T18:26:54;8.20;;;4.10;;
9418;SDS011;4748;50.802;7.132;2023-07-02T18:29:19;8.77;;;4.15;;
9418;SDS011;4748;50.802;7.132;2023-07-02T18:31:45;12.85;;;3.97;;
9418;SDS011;4748;50.802;7.132;2023-07-02T18:34:10;10.20;;;4.53;;
9418;SDS011;4748;50.802;7.132;2023-07-02T18:36:35;6.68;;;3.88;;
9418;SDS011;4748;50.802;7.132;2023-07-02T18:39:02;8.52;;;4.53;;